Biddulph, United Kingdom
Current Conditions -  °F | °C
As of 10:20 PM on Wednesday 28 Jan 2015 (Local Time) from EGCC Reporting Station
Broken Clouds Broken Clouds  
Wind Chill: 24°   Ceiling: 3000
Heat Index: 36°   Visibility: 6mi
Dew Point: 34°   Wind: 24mph
Humidity: 93%   Direction: 260°W
Pressure: 29.32"   Gusts: 38mph
Location:  53.12°N, 2.18°W
Report Text: EGCC 282220Z 26021G33KT 9999 SCT020CB BKN030 02/01 Q0993 RERA NOSIG
Loading
Personal Weather Stations






























Interactive Weather Map New forecast layout! Learn more

10-Day Weather Forecast

Advertisements
Track Severe Weather on mobile